createdAt,value
2023-04-04T00:01:32.022Z,2.70
2023-04-04T00:03:59.875Z,1.90
2023-04-04T00:06:28.033Z,2.07
2023-04-04T00:08:55.654Z,2.43
2023-04-04T00:11:23.372Z,1.90
2023-04-04T00:13:51.007Z,2.20
2023-04-04T00:16:18.716Z,2.27
2023-04-04T00:18:46.647Z,2.43
2023-04-04T00:21:14.224Z,2.10
2023-04-04T00:23:41.815Z,1.90
2023-04-04T00:26:09.484Z,2.00
2023-04-04T00:28:37.174Z,1.97
2023-04-04T00:31:05.003Z,2.27
2023-04-04T00:33:32.799Z,3.87
2023-04-04T00:36:00.500Z,2.60
2023-04-04T00:38:29.561Z,2.30
2023-04-04T00:40:57.725Z,2.00
2023-04-04T00:43:27.153Z,2.10
2023-04-04T00:45:54.829Z,2.07
2023-04-04T00:48:24.816Z,2.10
2023-04-04T00:50:52.736Z,2.43
2023-04-04T00:53:20.348Z,2.20
2023-04-04T00:55:48.002Z,1.90
2023-04-04T00:58:16.143Z,2.30
2023-04-04T01:00:43.768Z,2.77
2023-04-04T01:03:12.866Z,2.27
2023-04-04T01:05:41.134Z,2.13
2023-04-04T01:08:08.915Z,2.63
2023-04-04T01:10:37.459Z,2.20
2023-04-04T01:13:08.176Z,2.23
2023-04-04T01:15:35.882Z,4.37
2023-04-04T01:18:05.952Z,2.83
2023-04-04T01:20:38.719Z,2.50
2023-04-04T01:23:06.780Z,2.50
2023-04-04T01:25:34.909Z,2.20
2023-04-04T01:28:02.706Z,2.10
2023-04-04T01:30:37.771Z,1.97
2023-04-04T01:33:22.600Z,2.30
2023-04-04T01:36:09.062Z,1.87
2023-04-04T01:39:09.943Z,2.30
2023-04-04T01:41:41.079Z,2.10
2023-04-04T01:44:09.932Z,2.03
2023-04-04T01:46:37.561Z,2.23
2023-04-04T01:49:05.231Z,2.03
2023-04-04T01:51:33.855Z,2.07
2023-04-04T01:54:01.880Z,1.97
2023-04-04T01:56:29.541Z,2.20
2023-04-04T01:58:57.274Z,2.00
2023-04-04T02:01:24.985Z,2.30
2023-04-04T02:03:52.883Z,2.57
2023-04-04T02:06:20.507Z,2.50
2023-04-04T02:08:48.281Z,2.10
2023-04-04T02:11:16.005Z,2.40
2023-04-04T02:13:44.451Z,2.70
2023-04-04T02:16:12.295Z,2.27
2023-04-04T02:18:42.846Z,2.33
2023-04-04T02:21:10.628Z,2.40
2023-04-04T02:23:39.081Z,5.87
2023-04-04T02:26:06.938Z,3.07
2023-04-04T02:28:34.794Z,2.30
2023-04-04T02:31:03.171Z,2.63
2023-04-04T02:33:31.796Z,2.20
2023-04-04T02:36:00.074Z,2.30
2023-04-04T02:38:28.947Z,2.50
2023-04-04T02:40:56.578Z,2.00
2023-04-04T02:43:24.312Z,2.30
2023-04-04T02:45:52.458Z,2.60
2023-04-04T02:48:20.445Z,2.20
2023-04-04T02:50:48.108Z,1.90
2023-04-04T02:53:15.957Z,2.50
2023-04-04T02:55:43.656Z,2.20
2023-04-04T02:58:12.068Z,2.17
2023-04-04T03:00:39.912Z,2.50
2023-04-04T03:03:08.013Z,2.50
2023-04-04T03:05:36.063Z,2.30
2023-04-04T03:08:04.663Z,2.27
2023-04-04T03:10:32.428Z,2.50
2023-04-04T03:13:00.888Z,2.30
2023-04-04T03:15:30.976Z,2.70
2023-04-04T03:17:59.012Z,2.20
2023-04-04T03:20:27.107Z,2.07
2023-04-04T03:22:54.752Z,2.17
2023-04-04T03:25:22.417Z,2.57
2023-04-04T03:27:53.488Z,2.20
2023-04-04T03:30:23.974Z,2.13
2023-04-04T03:32:51.645Z,2.67
2023-04-04T03:35:19.316Z,2.60
2023-04-04T03:37:48.124Z,2.23
2023-04-04T03:40:15.887Z,2.40
2023-04-04T03:42:46.307Z,2.30
2023-04-04T03:45:13.946Z,2.97
2023-04-04T03:47:41.636Z,2.93
2023-04-04T03:50:09.877Z,2.73
2023-04-04T03:52:40.487Z,3.10
2023-04-04T03:55:08.793Z,2.70
2023-04-04T03:57:36.836Z,2.90
2023-04-04T04:00:05.074Z,2.50
2023-04-04T04:02:32.797Z,2.77
2023-04-04T04:05:00.466Z,2.67
2023-04-04T04:07:28.160Z,2.50
2023-04-04T04:09:55.823Z,2.50
2023-04-04T04:12:23.698Z,2.40
2023-04-04T04:14:51.300Z,3.67
2023-04-04T04:17:26.436Z,2.63
2023-04-04T04:19:54.152Z,2.97
2023-04-04T04:22:21.878Z,2.60
2023-04-04T04:24:49.521Z,3.10
2023-04-04T04:27:17.148Z,2.50
2023-04-04T04:29:44.813Z,3.17
2023-04-04T04:32:17.028Z,3.13
2023-04-04T04:34:48.163Z,3.07
2023-04-04T04:37:15.777Z,3.10
2023-04-04T04:39:43.393Z,2.97
2023-04-04T04:42:11.087Z,3.20
2023-04-04T04:44:41.814Z,3.20
2023-04-04T04:47:09.454Z,3.00
2023-04-04T04:49:40.147Z,3.10
2023-04-04T04:52:07.900Z,3.13
2023-04-04T04:54:35.573Z,2.70
2023-04-04T04:57:03.257Z,2.60
2023-04-04T04:59:31.069Z,2.57
2023-04-04T05:01:58.839Z,2.90
2023-04-04T05:04:27.213Z,2.63
2023-04-04T05:06:57.670Z,2.83
2023-04-04T05:09:25.267Z,2.70
2023-04-04T05:11:55.814Z,2.80
2023-04-04T05:14:23.613Z,2.50
2023-04-04T05:16:51.334Z,2.63
2023-04-04T05:19:19.060Z,2.70
2023-04-04T05:21:46.726Z,2.80
2023-04-04T05:24:14.445Z,3.00
2023-04-04T05:26:42.317Z,2.97
2023-04-04T05:29:09.885Z,2.47
2023-04-04T05:31:37.539Z,2.60
2023-04-04T05:34:08.505Z,2.57
2023-04-04T05:36:39.234Z,2.33
2023-04-04T05:39:07.084Z,4.10
2023-04-04T05:41:34.681Z,3.20
2023-04-04T05:44:05.242Z,2.93
2023-04-04T05:46:32.990Z,2.83
2023-04-04T05:49:03.911Z,2.30
2023-04-04T05:51:31.576Z,2.40
2023-04-04T05:53:59.868Z,2.47
2023-04-04T05:56:28.698Z,2.43
2023-04-04T05:58:56.491Z,2.93
2023-04-04T06:01:27.432Z,2.00
2023-04-04T06:03:56.241Z,2.50
2023-04-04T06:06:24.122Z,2.40
2023-04-04T06:08:53.798Z,2.30
2023-04-04T06:11:25.027Z,2.30
2023-04-04T06:13:54.825Z,2.83
2023-04-04T06:16:23.381Z,3.00
2023-04-04T06:18:51.182Z,2.10
2023-04-04T06:21:18.766Z,2.60
2023-04-04T06:23:49.404Z,2.20
2023-04-04T06:26:16.979Z,2.10
2023-04-04T06:28:51.500Z,2.00
2023-04-04T06:31:19.218Z,2.00
2023-04-04T06:33:49.706Z,2.50
2023-04-04T06:36:17.445Z,2.30
2023-04-04T06:38:45.168Z,2.20
2023-04-04T06:41:15.561Z,2.37
2023-04-04T06:43:43.251Z,2.53
2023-04-04T06:46:11.142Z,2.07
2023-04-04T06:48:38.902Z,2.37
2023-04-04T06:51:07.700Z,2.43
2023-04-04T06:53:35.994Z,2.27
2023-04-04T06:56:04.731Z,2.33
2023-04-04T06:58:32.574Z,2.40
2023-04-04T07:01:02.242Z,2.40
2023-04-04T07:03:30.850Z,2.70
2023-04-04T07:05:58.638Z,2.57
2023-04-04T07:08:37.065Z,2.30
2023-04-04T07:11:06.423Z,2.30
2023-04-04T07:13:35.245Z,2.43
2023-04-04T07:16:03.431Z,2.43
2023-04-04T07:18:34.164Z,2.17
2023-04-04T07:21:04.919Z,2.27
2023-04-04T07:23:34.875Z,2.33
2023-04-04T07:26:02.810Z,2.50
2023-04-04T07:28:34.426Z,2.13
2023-04-04T07:31:02.175Z,2.20
2023-04-04T07:33:30.458Z,2.10
2023-04-04T07:35:58.237Z,2.23
2023-04-04T07:38:26.216Z,1.90
2023-04-04T07:40:53.946Z,2.30
2023-04-04T07:43:21.687Z,2.20
2023-04-04T07:45:49.397Z,2.23
2023-04-04T07:48:21.717Z,2.57
2023-04-04T07:50:50.586Z,2.57
2023-04-04T07:53:18.125Z,2.03
2023-04-04T07:55:45.752Z,2.07
2023-04-04T07:58:13.424Z,2.57
2023-04-04T08:00:41.274Z,2.00
2023-04-04T08:03:09.017Z,2.00
2023-04-04T08:05:36.757Z,1.87
2023-04-04T08:08:04.751Z,2.03
2023-04-04T08:10:32.548Z,1.90
2023-04-04T08:13:00.240Z,2.10
2023-04-04T08:15:27.903Z,2.17
2023-04-04T08:17:56.816Z,2.40
2023-04-04T08:20:24.613Z,2.20
2023-04-04T08:22:52.483Z,2.10
2023-04-04T08:25:20.198Z,2.40
2023-04-04T08:27:50.776Z,1.70
2023-04-04T08:30:21.388Z,1.90
2023-04-04T08:32:49.790Z,1.90
2023-04-04T08:35:17.559Z,1.90
2023-04-04T08:37:46.312Z,2.10
2023-04-04T08:40:14.457Z,2.40
2023-04-04T08:42:46.212Z,2.00
2023-04-04T08:45:18.539Z,2.10
2023-04-04T08:47:51.155Z,2.00
2023-04-04T08:50:19.703Z,1.97
2023-04-04T08:52:47.873Z,2.40
2023-04-04T08:55:15.843Z,2.23
2023-04-04T08:57:43.482Z,2.10
2023-04-04T09:00:12.072Z,2.40
2023-04-04T09:03:10.365Z,2.20
2023-04-04T09:05:38.392Z,2.60
2023-04-04T09:08:07.367Z,2.23
2023-04-04T09:10:36.191Z,2.10
2023-04-04T09:13:15.551Z,2.20
2023-04-04T09:15:55.064Z,2.07
2023-04-04T09:18:38.878Z,2.67
2023-04-04T09:21:13.456Z,2.00
2023-04-04T09:24:11.622Z,2.47
2023-04-04T09:29:39.957Z,2.20
2023-04-04T09:32:57.437Z,2.97
2023-04-04T09:35:44.143Z,2.07
2023-04-04T09:38:13.086Z,2.20
2023-04-04T09:40:42.242Z,2.27
2023-04-04T09:43:16.385Z,2.30
2023-04-04T09:45:48.078Z,2.33
2023-04-04T09:48:34.896Z,1.93
2023-04-04T09:51:24.914Z,2.00
2023-04-04T09:57:06.157Z,2.20
2023-04-04T10:00:02.314Z,2.30
2023-04-04T10:06:08.404Z,2.17
2023-04-04T10:09:01.319Z,1.90
2023-04-04T10:12:09.765Z,2.30
2023-04-04T10:14:38.042Z,2.10
2023-04-04T10:17:15.856Z,2.53
2023-04-04T10:20:01.889Z,2.40
2023-04-04T10:22:31.202Z,3.40
2023-04-04T10:24:59.379Z,1.90
2023-04-04T10:27:27.404Z,1.90
2023-04-04T10:29:55.148Z,2.37
2023-04-04T10:32:30.160Z,2.20
2023-04-04T10:35:04.033Z,2.00
2023-04-04T10:37:51.525Z,2.47
2023-04-04T10:40:24.292Z,2.40
2023-04-04T10:52:03.542Z,2.40
2023-04-04T10:54:13.632Z,2.60
2023-04-04T10:57:09.591Z,2.20
2023-04-04T11:00:34.000Z,2.00
2023-04-04T11:03:09.674Z,2.33
2023-04-04T11:06:00.116Z,2.13
2023-04-04T11:08:40.211Z,2.10
2023-04-04T11:11:22.540Z,2.27
2023-04-04T11:14:29.989Z,2.00
2023-04-04T11:17:07.191Z,1.97
2023-04-04T11:19:35.721Z,2.42
2023-04-04T11:22:03.354Z,2.10
2023-04-04T11:24:31.564Z,1.85
2023-04-04T11:27:00.959Z,1.90
2023-04-04T11:29:53.335Z,2.15
2023-04-04T11:33:07.843Z,2.15
2023-04-04T11:35:39.865Z,2.30
2023-04-04T11:38:36.607Z,2.20
2023-04-04T11:41:16.174Z,2.20
2023-04-04T11:43:57.057Z,1.88
2023-04-04T11:46:40.236Z,2.00
2023-04-04T11:49:44.091Z,2.15
2023-04-04T11:52:36.041Z,2.00
2023-04-04T11:55:18.097Z,2.05
2023-04-04T11:58:14.801Z,2.30
2023-04-04T12:00:49.556Z,1.83
2023-04-04T12:03:28.121Z,2.08
2023-04-04T12:06:11.614Z,1.85
2023-04-04T12:08:47.839Z,2.25
2023-04-04T12:11:24.652Z,3.03
2023-04-04T12:13:52.502Z,2.10
2023-04-04T12:17:05.012Z,2.00
2023-04-04T12:19:38.801Z,2.05
2023-04-04T12:22:08.063Z,1.90
2023-04-04T12:24:38.687Z,2.20
2023-04-04T12:27:06.763Z,1.98
2023-04-04T12:29:37.476Z,2.15
2023-04-04T12:32:07.551Z,2.00
2023-04-04T12:34:41.270Z,2.40
2023-04-04T12:37:11.698Z,2.00
2023-04-04T12:40:24.623Z,2.13
2023-04-04T12:43:20.316Z,1.90
2023-04-04T12:46:04.186Z,2.30
2023-04-04T12:48:32.474Z,1.98
2023-04-04T12:51:00.931Z,2.10
2023-04-04T12:53:30.216Z,2.13
2023-04-04T12:56:04.500Z,2.80
2023-04-04T13:01:21.396Z,2.40
2023-04-04T13:03:49.557Z,2.10
2023-04-04T13:06:19.529Z,2.33
2023-04-04T13:08:53.979Z,2.10
2023-04-04T13:11:22.338Z,2.40
2023-04-04T13:14:03.709Z,2.30
2023-04-04T13:16:37.144Z,2.40
2023-04-04T13:19:05.286Z,2.55
2023-04-04T13:21:32.977Z,3.00
2023-04-04T13:24:02.908Z,2.70
2023-04-04T13:26:33.785Z,2.03
2023-04-04T13:29:01.444Z,2.13
2023-04-04T13:31:29.104Z,2.42
2023-04-04T13:33:56.773Z,2.03
2023-04-04T13:36:24.409Z,2.35
2023-04-04T13:38:52.063Z,2.70
2023-04-04T13:41:19.750Z,2.17
2023-04-04T13:43:47.386Z,4.43
2023-04-04T13:46:15.505Z,2.17
2023-04-04T13:48:46.168Z,1.92
2023-04-04T13:51:13.793Z,1.90
2023-04-04T13:53:41.543Z,2.30
2023-04-04T13:58:39.781Z,1.67
2023-04-04T14:01:09.918Z,1.90
2023-04-04T14:03:37.765Z,2.10
2023-04-04T14:06:10.426Z,2.03
2023-04-04T14:08:41.542Z,2.10
2023-04-04T14:11:12.229Z,2.03
2023-04-04T14:13:42.501Z,1.73
2023-04-04T14:16:15.640Z,5.95
2023-04-04T14:18:50.239Z,2.15
2023-04-04T14:21:18.507Z,1.98
2023-04-04T14:23:46.242Z,2.20
2023-04-04T14:26:14.055Z,2.20
2023-04-04T14:28:44.101Z,2.15
2023-04-04T14:31:11.999Z,2.35
2023-04-04T14:33:59.608Z,2.58
2023-04-04T14:36:35.091Z,2.40
2023-04-04T14:39:35.191Z,2.70
2023-04-04T14:42:34.620Z,2.72
2023-04-04T14:45:22.642Z,2.40
2023-04-04T14:47:52.892Z,2.60
2023-04-04T14:50:37.615Z,2.35
2023-04-04T14:53:20.016Z,2.78
2023-04-04T14:58:45.952Z,2.72
2023-04-04T15:01:38.620Z,2.45
2023-04-04T15:04:25.394Z,2.72
2023-04-04T15:07:04.923Z,2.65
2023-04-04T15:09:43.725Z,2.25
2023-04-04T15:12:18.309Z,2.03
2023-04-04T15:14:57.830Z,2.40
2023-04-04T15:17:31.783Z,2.10
2023-04-04T15:20:02.670Z,2.40
2023-04-04T15:22:42.165Z,2.60
2023-04-04T15:25:16.126Z,2.28
2023-04-04T15:27:43.755Z,2.03
2023-04-04T15:30:13.092Z,2.17
2023-04-04T15:32:40.857Z,2.20
2023-04-04T15:35:17.017Z,2.00
2023-04-04T15:37:44.698Z,2.15
2023-04-04T15:40:13.035Z,2.00
2023-04-04T15:42:44.106Z,2.10
2023-04-04T15:45:13.307Z,2.20
2023-04-04T15:47:42.332Z,2.55
2023-04-04T15:50:11.645Z,1.83
2023-04-04T15:52:39.360Z,2.05
2023-04-04T15:55:12.426Z,1.98
2023-04-04T15:57:40.551Z,2.20
2023-04-04T16:00:09.417Z,2.40
2023-04-04T16:02:37.848Z,2.50
2023-04-04T16:05:06.114Z,2.10
2023-04-04T16:07:33.899Z,2.38
2023-04-04T16:10:02.033Z,2.25
2023-04-04T16:12:29.681Z,2.22
2023-04-04T16:14:57.478Z,2.50
2023-04-04T16:17:27.356Z,2.00
2023-04-04T16:19:55.092Z,2.17
2023-04-04T16:22:22.678Z,2.20
2023-04-04T16:24:50.525Z,2.17
2023-04-04T16:27:18.467Z,2.05
2023-04-04T16:29:46.140Z,2.78
2023-04-04T16:32:13.775Z,2.30
2023-04-04T16:34:41.550Z,2.05
2023-04-04T16:37:11.543Z,2.10
2023-04-04T16:39:39.306Z,2.20
2023-04-04T16:42:06.902Z,2.20
2023-04-04T16:44:35.137Z,2.20
2023-04-04T16:47:02.977Z,2.45
2023-04-04T16:49:31.184Z,2.53
2023-04-04T16:51:58.797Z,2.20
2023-04-04T16:54:26.410Z,2.15
2023-04-04T16:56:54.035Z,2.83
2023-04-04T16:59:24.371Z,2.60
2023-04-04T17:01:51.968Z,2.50
2023-04-04T17:04:19.710Z,2.10
2023-04-04T17:06:48.561Z,2.30
2023-04-04T17:09:16.629Z,2.50
2023-04-04T17:11:46.954Z,2.60
2023-04-04T17:14:14.738Z,2.50
2023-04-04T17:16:45.299Z,2.37
2023-04-04T17:19:12.938Z,2.23
2023-04-04T17:21:43.600Z,4.30
2023-04-04T17:24:11.562Z,2.57
2023-04-04T17:26:41.996Z,2.53
2023-04-04T17:29:09.631Z,2.80
2023-04-04T17:31:38.983Z,2.47
2023-04-04T17:34:06.833Z,2.60
2023-04-04T17:36:34.554Z,2.87
2023-04-04T17:39:02.440Z,2.37
2023-04-04T17:41:30.436Z,2.63
2023-04-04T17:43:58.411Z,3.10
2023-04-04T17:46:26.056Z,2.20
2023-04-04T17:48:53.700Z,2.57
2023-04-04T17:51:21.620Z,2.77
2023-04-04T17:53:50.337Z,2.60
2023-04-04T17:56:18.079Z,2.40
2023-04-04T17:58:53.279Z,2.43
2023-04-04T18:01:21.642Z,2.50
2023-04-04T18:03:49.516Z,2.60
2023-04-04T18:06:18.142Z,2.70
2023-04-04T18:08:45.749Z,2.93
2023-04-04T18:11:13.422Z,2.70
2023-04-04T18:13:41.104Z,2.77
2023-04-04T18:16:08.906Z,2.80
2023-04-04T18:18:37.498Z,2.90
2023-04-04T18:21:05.415Z,2.63
2023-04-04T18:23:33.301Z,2.60
2023-04-04T18:26:01.692Z,2.80
2023-04-04T18:28:29.522Z,2.80
2023-04-04T18:30:58.364Z,3.30
2023-04-04T18:33:27.235Z,2.73
2023-04-04T18:35:54.944Z,3.10
2023-04-04T18:38:25.068Z,2.77
2023-04-04T18:40:52.804Z,3.73
2023-04-04T18:43:20.490Z,3.33
2023-04-04T18:45:48.691Z,5.33
2023-04-04T18:48:16.795Z,4.97
2023-04-04T18:50:45.682Z,4.67
2023-04-04T18:53:13.305Z,3.63
2023-04-04T18:55:41.074Z,3.43
2023-04-04T18:58:08.823Z,3.20
2023-04-04T19:00:37.389Z,3.00
2023-04-04T19:03:07.549Z,3.30
2023-04-04T19:05:37.170Z,2.97
2023-04-04T19:08:11.721Z,3.00
2023-04-04T19:10:43.793Z,3.63
2023-04-04T19:13:11.368Z,5.10
2023-04-04T19:15:41.645Z,4.87
2023-04-04T19:18:10.654Z,8.00
2023-04-04T19:20:38.627Z,4.77
2023-04-04T19:23:08.722Z,7.17
2023-04-04T19:25:36.338Z,3.80
2023-04-04T19:28:04.528Z,3.17
2023-04-04T19:30:45.532Z,3.50
2023-04-04T19:33:19.280Z,5.03
2023-04-04T19:36:00.263Z,5.00
2023-04-04T19:38:38.833Z,4.90
2023-04-04T19:41:32.623Z,4.70
2023-04-04T19:44:00.676Z,5.27
2023-04-04T19:46:31.667Z,5.80
2023-04-04T19:49:12.609Z,5.10
2023-04-04T19:51:47.753Z,4.70
2023-04-04T19:54:15.830Z,5.33
2023-04-04T19:56:47.155Z,5.60
2023-04-04T19:59:52.378Z,6.67
2023-04-04T20:02:33.019Z,4.90
2023-04-04T20:05:01.504Z,5.90
2023-04-04T20:07:29.276Z,6.37
2023-04-04T20:09:56.980Z,6.47
2023-04-04T20:12:25.671Z,7.43
2023-04-04T20:14:59.203Z,7.40
2023-04-04T20:17:26.996Z,7.30
2023-04-04T20:19:54.628Z,6.47
2023-04-04T20:22:23.364Z,7.37
2023-04-04T20:24:51.076Z,6.70
2023-04-04T20:27:25.308Z,5.80
2023-04-04T20:29:53.985Z,5.87
2023-04-04T20:32:21.814Z,5.63
2023-04-04T20:34:50.534Z,5.97
2023-04-04T20:37:23.847Z,6.93
2023-04-04T20:40:07.893Z,5.87
2023-04-04T20:42:44.309Z,5.53
2023-04-04T20:45:28.081Z,5.60
2023-04-04T20:48:01.661Z,5.97
2023-04-04T20:50:29.252Z,5.30
2023-04-04T20:52:59.570Z,5.17
2023-04-04T20:55:31.618Z,4.00
2023-04-04T20:58:25.397Z,3.73
2023-04-04T21:00:53.119Z,5.40
2023-04-04T21:03:26.627Z,5.57
2023-04-04T21:05:59.018Z,4.80
2023-04-04T21:08:29.333Z,5.27
2023-04-04T21:10:57.729Z,4.90
2023-04-04T21:13:33.180Z,4.67
2023-04-04T21:16:03.784Z,4.37
2023-04-04T21:18:32.981Z,3.80
2023-04-04T21:21:10.647Z,4.03
2023-04-04T21:23:44.027Z,4.33
2023-04-04T21:26:32.848Z,4.37
2023-04-04T21:29:24.485Z,4.30
2023-04-04T21:31:54.011Z,3.70
2023-04-04T21:34:23.805Z,3.50
2023-04-04T21:36:56.927Z,3.30
2023-04-04T21:39:25.583Z,3.50
2023-04-04T21:42:03.630Z,3.40
2023-04-04T21:44:32.980Z,3.53
2023-04-04T21:47:03.079Z,3.70
2023-04-04T21:49:30.750Z,3.90
2023-04-04T21:51:58.348Z,4.00
2023-04-04T21:54:26.021Z,4.30
2023-04-04T21:56:56.913Z,4.20
2023-04-04T21:59:24.669Z,4.10
2023-04-04T22:01:52.448Z,4.20
2023-04-04T22:04:20.104Z,3.70
2023-04-04T22:06:47.794Z,4.13
2023-04-04T22:09:15.703Z,3.40
2023-04-04T22:11:44.378Z,3.40
2023-04-04T22:14:17.791Z,3.80
2023-04-04T22:16:46.002Z,3.70
2023-04-04T22:19:13.686Z,2.90
2023-04-04T22:21:48.022Z,3.20
2023-04-04T22:24:18.511Z,3.60
2023-04-04T22:26:46.534Z,3.20
2023-04-04T22:29:14.464Z,3.30
2023-04-04T22:31:43.629Z,3.33
2023-04-04T22:34:14.138Z,3.27
2023-04-04T22:36:44.929Z,3.37
2023-04-04T22:39:15.928Z,3.20
2023-04-04T22:41:44.342Z,3.37
2023-04-04T22:44:11.965Z,3.23
2023-04-04T22:46:39.964Z,3.60
2023-04-04T22:49:08.836Z,3.30
2023-04-04T22:51:46.069Z,3.80
2023-04-04T22:54:16.980Z,4.10
2023-04-04T22:56:45.366Z,3.90
2023-04-04T22:59:16.499Z,3.70
2023-04-04T23:01:44.416Z,3.17
2023-04-04T23:04:12.576Z,3.30
2023-04-04T23:06:44.796Z,3.97
2023-04-04T23:09:12.776Z,3.93
2023-04-04T23:11:40.773Z,3.20
2023-04-04T23:14:09.278Z,3.10
2023-04-04T23:16:37.819Z,5.77
2023-04-04T23:19:05.491Z,4.70
2023-04-04T23:21:33.322Z,5.67
2023-04-04T23:24:01.012Z,4.20
2023-04-04T23:26:28.712Z,4.17
2023-04-04T23:28:57.009Z,4.30
2023-04-04T23:31:25.924Z,4.43
2023-04-04T23:33:54.253Z,4.43
2023-04-04T23:36:22.013Z,4.80
2023-04-04T23:38:49.606Z,4.43
2023-04-04T23:41:18.213Z,4.30
2023-04-04T23:43:48.675Z,3.90
2023-04-04T23:46:16.304Z,4.00
2023-04-04T23:48:47.337Z,3.93
2023-04-04T23:51:16.182Z,4.03
2023-04-04T23:53:43.821Z,4.20
2023-04-04T23:56:12.410Z,4.50
2023-04-04T23:58:40.554Z,4.37
